Flight Track Log - Related Links

Times and Time Zones

All times are in EDT time to prevent confusion due to time zone crossing. See the CPZ5714 flight status page for this flight to view local times or setup timezone preferences in your user account.

Time Position Orientation Groundspeed Altitude Reporting Facility
EDT Latitude Longitude Course Direction KTS MPH feet Rate Location/Type
Mon 09:15:56 PM 44.9000 -93.2333 65° Northeast 167 192 1,900  Level Minneapolis TRACON
Mon 09:16:48 PM 44.9483 -93.2375 357° North 180 207 2,900 1,737 Climbing Minneapolis Center
Mon 09:17:50 PM 44.9911 -93.1778 45° Northeast 238 274 5,200 2,565 Climbing Minneapolis Center
Mon 09:18:00 PM 45.0552 -92.5654 68° East  Level FlightAware Approximate
Mon 09:18:52 PM 45.0247 -93.0811 64° Northeast 270 311 8,200  Level Minneapolis Center
Mon 09:19:00 PM 45.0998 -92.4007 70° East  Level FlightAware Approximate
Mon 09:19:54 PM 45.0625 -92.9767 63° Northeast 296 341 10,600  Level Minneapolis Center
Mon 09:20:00 PM 45.1376 -92.2335 70° East  Level FlightAware Approximate
Mon 09:20:56 PM 45.1144 -92.8278 64° Northeast 362 417 12,200  Level Minneapolis Center
Mon 09:21:00 PM 45.1826 -92.0690 65° Northeast  Level FlightAware Approximate
Mon 09:21:58 PM 45.1625 -92.6914 63° Northeast 385 443 14,400  Level Minneapolis Center
Mon 09:23:00 PM 45.2111 -92.5519 64° Northeast 393 452 16,700 1,984 Climbing Minneapolis Center
Mon 09:24:02 PM 45.2603 -92.4117 63° Northeast 398 458 18,500 1,742 Climbing Minneapolis Center
Mon 09:25:04 PM 45.3067 -92.2625 66° East 413 475 20,300 1,584 Climbing Minneapolis Center
Mon 09:26:07 PM 45.3261 -92.0939 81° East 432 497 21,800 1,536 Climbing Minneapolis Center
Mon 09:27:09 PM 45.3183 -91.8867 93° East 436 502 23,500 1,452 Climbing Minneapolis Center
Mon 09:28:11 PM 45.3069 -91.7083 95° East 449 517 24,800 1,065 Climbing Minneapolis Center
Mon 09:29:13 PM 45.2953 -91.5258 95° East 459 528 25,700 878 Climbing Minneapolis Center
Mon 09:30:14 PM 45.2878 -91.3769 94° East 468 539 26,600 935 Climbing Minneapolis Center
Mon 09:32:00 PM 45.2397 -91.0732 103° East  Level FlightAware Approximate
Mon 09:32:19 PM 45.2583 -90.9528 103° East 480 552 28,600  Level Minneapolis Center
Mon 09:33:21 PM 45.2458 -90.7631 95° East 484 557 29,800 1,161 Climbing Minneapolis Center
Mon 09:34:23 PM 45.2328 -90.5756 96° East 482 555 31,000 1,306 Climbing Minneapolis Center
Mon 09:35:25 PM 45.2178 -90.3556 95° East 470 541 32,500 976 Climbing Minneapolis Center
Mon 09:36:26 PM 45.2044 -90.1733 96° East 468 539 33,000 244 Climbing Minneapolis Center
Mon 09:37:28 PM 45.1900 -89.9853 96° East 477 549 33,000  Level Minneapolis Center
Mon 09:38:30 PM 45.1756 -89.7911 96° East 491 565 33,000  Level Minneapolis Center
Mon 09:39:33 PM 45.1594 -89.5933 97° East 504 580 33,000  Level Minneapolis Center
Mon 09:40:34 PM 45.1414 -89.3586 96° East 503 579 33,000  Level Minneapolis Center
Mon 09:41:36 PM 45.1244 -89.1636 97° East 504 580 33,000  Level Minneapolis Center
Mon 09:42:38 PM 45.1083 -88.9664 97° East 507 583 33,000  Level Minneapolis Center
Mon 09:43:40 PM 45.0917 -88.7694 97° East 507 583 33,000  Level Minneapolis Center
Mon 09:44:41 PM 45.0756 -88.5742 97° East 509 586 33,000  Level Minneapolis Center
Mon 09:45:43 PM 45.0578 -88.3758 97° East 509 586 33,000  Level Minneapolis Center
Mon 09:46:45 PM 45.0383 -88.1786 98° East 508 585 33,000  Level Minneapolis Center
Mon 09:47:46 PM 45.0164 -87.9400 97° East 509 586 33,000  Level Minneapolis Center
Mon 09:48:48 PM 44.9978 -87.7411 97° East 511 588 33,000  Level Minneapolis Center
Mon 09:49:49 PM 44.9797 -87.5422 97° East 511 588 33,000  Level Minneapolis Center
Mon 09:50:51 PM 44.9589 -87.3472 99° East 506 582 33,000  Level Minneapolis Center
Mon 09:51:53 PM 44.9400 -87.1522 98° East 502 578 33,000  Level Minneapolis Center
Mon 09:52:54 PM 44.9236 -86.9953 98° East 506 582 33,000  Level Minneapolis Center
Mon 09:53:56 PM 44.8981 -86.7497 98° East 500 575 33,000  Level Minneapolis Center
Mon 09:55:10 PM 44.8722 -86.5092 99° East 513 590 33,000  Level Minneapolis Center
Mon 09:56:11 PM 44.8519 -86.3086 98° East 517 595 33,000  Level Minneapolis Center
Mon 09:57:13 PM 44.8289 -86.1056 99° East 521 600 33,000  Level Minneapolis Center
Mon 09:58:14 PM 44.8100 -85.9406 99° East 527 606 33,000  Level Minneapolis Center
Mon 09:59:16 PM 44.7786 -85.6569 99° East 526 605 33,000  Level Minneapolis Center
Mon 10:00:18 PM 44.7556 -85.4511 99° East 525 604 33,000  Level Minneapolis Center
Mon 10:01:21 PM 44.7314 -85.2447 99° East 532 612 33,000  Level Minneapolis Center
Mon 10:02:22 PM 44.7069 -85.0361 99° East 539 620 33,000  Level Minneapolis Center
Mon 10:03:24 PM 44.6811 -84.8281 100° East 542 624 33,000  Level Minneapolis Center
Mon 10:04:38 PM 44.6561 -84.6172 99° East 546 628 33,000  Level Minneapolis Center
Mon 10:05:39 PM 44.6183 -84.3206 100° East 551 634 33,000  Level Minneapolis Center
Mon 10:06:41 PM 44.5914 -84.1053 100° East 555 639 33,000  Level Minneapolis Center
Mon 10:07:42 PM 44.5633 -83.8894 100° East 560 644 33,000  Level Minneapolis Center
Mon 10:08:44 PM 44.5358 -83.6742 100° East 562 647 33,000  Level Minneapolis Center
Mon 10:09:45 PM 44.5067 -83.4561 101° East 566 651 33,000  Level Minneapolis Center
Mon 10:10:47 PM 44.4761 -83.2389 101° East 568 654 33,000  Level Minneapolis Center
Mon 10:11:48 PM 44.4475 -83.0217 100° East 569 655 33,000  Level Minneapolis Center
Mon 10:12:50 PM 44.4181 -82.8039 101° East 571 657 33,000  Level Minneapolis Center
Mon 10:13:18 PM 44.3667 -82.6667 118° Southeast 570 656 33,000  Level Toronto Center
Mon 10:13:51 PM 44.3789 -82.5422 82° East 573 659 33,000  Level Minneapolis Center
Mon 10:14:18 PM 44.3500 -82.4333 110° East 570 656 33,000  Level Toronto Center
Mon 10:15:18 PM 44.3167 -82.2167 102° East 580 667 33,000  Level Toronto Center
Mon 10:16:18 PM 44.2833 -81.9833 101° East 580 667 33,000  Level Toronto Center
Mon 10:17:18 PM 44.2500 -81.7667 102° East 580 667 33,000  Level Toronto Center
Mon 10:18:18 PM 44.2167 -81.5667 103° East 590 679 33,000  Level Toronto Center
Mon 10:19:18 PM 44.1833 -81.3333 101° East 580 667 33,000  Level Toronto Center
Mon 10:20:18 PM 44.1500 -81.1000 101° East 590 679 33,000  Level Toronto Center
Mon 10:21:18 PM 44.1167 -80.8833 102° East 590 679 33,000  Level Toronto Center
Mon 10:22:18 PM 44.0833 -80.6500 101° East 590 679 33,000  Level Toronto Center
Mon 10:23:18 PM 44.0500 -80.4500 103° East 590 679 33,000  Level Toronto Center
Mon 10:24:18 PM 44.0167 -80.2167 101° East 600 690 33,000  Level Toronto Center
Mon 10:25:18 PM 43.9667 -79.9833 107° East 600 690 33,000  Level Toronto Center
Mon 10:26:18 PM 43.9333 -79.7667 102° East 600 690 33,000  Level Toronto Center
Mon 10:27:18 PM 43.9000 -79.5167 100° East 600 690 33,000  Level Toronto Center
Mon 10:28:18 PM 43.8500 -79.3167 109° East 600 690 33,000  Level Toronto Center
Mon 10:29:18 PM 43.8167 -79.1000 102° East 600 690 33,000  Level Toronto Center
Mon 10:30:18 PM 43.7833 -78.8500 100° East 600 690 33,000  Level Toronto Center
Mon 10:31:18 PM 43.7500 -78.6333 102° East 600 690 33,000  Level Toronto Center
Mon 10:32:18 PM 43.6833 -78.4167 113° Southeast 600 690 33,000  Level Toronto Center
Mon 10:33:18 PM 43.6500 -78.1833 101° East 600 690 33,000  Level Toronto Center
Mon 10:34:23 PM 43.6233 -77.9967 101° East 600 690 33,000  Level Cleveland Center
Mon 10:35:23 PM 43.5828 -77.7747 104° East 600 690 33,000  Level Cleveland Center
Mon 10:37:07 PM 43.5047 -77.3761 105° East 606 697 33,000 -256 Level Boston Center
Mon 10:38:07 PM 43.4617 -77.1581 105° East 601 692 32,300 -850 Descending Boston Center
Mon 10:39:07 PM 43.4203 -76.9458 105° East 591 680 31,300 -1,000 Descending Boston Center
Mon 10:40:07 PM 43.3786 -76.7314 105° East 585 673 30,300 -950 Descending Boston Center
Mon 10:41:07 PM 43.3436 -76.5433 104° East 578 665 29,400 -650 Descending Boston Center
Mon 10:42:07 PM 43.2989 -76.3375 107° East 573 659 29,000 -200 Descending Boston Center
Mon 10:43:07 PM 43.2558 -76.1267 106° East 568 654 29,000  Level Boston Center
Mon 10:44:07 PM 43.2142 -75.9217 106° East 562 647 29,000 -591 Level Boston Center
Mon 10:45:19 PM 43.1631 -75.6797 106° East 562 647 27,700 -2,045 Descending Boston Center
Mon 10:46:19 PM 43.1186 -75.4753 107° East 537 618 24,500 -2,850 Descending Boston Center
Mon 10:47:19 PM 43.0794 -75.3000 107° East 507 583 22,000 -2,400 Descending Boston Center
Mon 10:48:19 PM 43.0478 -75.1392 105° East 470 541 19,700 -2,200 Descending Boston Center
Mon 10:49:19 PM 43.0139 -74.9872 107° East 434 499 17,600 -2,150 Descending Boston Center
Mon 10:50:19 PM 42.9817 -74.8411 107° East 418 481 15,400 -2,194 Descending Boston Center
Mon 10:50:52 PM 42.9625 -74.7553 107° East 395 455 14,200 -1,800 Descending Boston Center
Mon 10:51:19 PM 42.9531 -74.7094 106° East 405 466 13,600 -1,967 Descending Boston Center
Mon 10:51:53 PM 42.9339 -74.6153 106° East 384 442 12,200 -2,200 Descending Boston Center
Mon 10:52:19 PM 42.9206 -74.5608 108° East 383 441 11,400 -1,309 Descending Boston Center
Mon 10:52:48 PM 42.9092 -74.4869 102° East 378 435 11,000 -400 Descending Boston Center
Mon 10:53:19 PM 42.9103 -74.4331 88° East 378 435 11,000 -600 Level Boston Center
Mon 10:53:48 PM 42.9136 -74.3564 87° East 336 387 10,400 -1,300 Descending Boston Center
Mon 10:54:19 PM 42.9147 -74.2942 89° East 343 395 9,700 -1,672 Descending Boston Center
Mon 10:54:49 PM 42.9178 -74.2347 86° East 315 362 8,700 -1,700 Descending Boston Center
Mon 10:55:19 PM 42.9164 -74.1864 92° East 327 376 8,000 -1,869 Descending Boston Center
Mon 10:55:50 PM 42.9194 -74.1158 87° East 315 362 6,800 -2,100 Descending Boston Center
Mon 10:56:19 PM 42.9225 -74.0561 86° East 310 357 5,900 -1,900 Descending Boston Center
Mon 10:56:50 PM 42.9231 -74.0053 89° East 284 327 4,900 -1,700 Descending Boston Center
Mon 10:57:19 PM 42.9217 -73.9656 93° East 281 323 4,200 -1,770 Descending Boston Center
Mon 10:57:51 PM 42.9244 -73.9089 86° East 234 269 3,100 -1,600 Descending Boston Center
Mon 10:58:19 PM 42.9144 -73.8744 112° Southeast 238 274 2,600 -889 Descending Boston Center
Mon 10:58:45 PM 42.8981 -73.8486 131° Southeast 198 228 2,300 -300 Descending Boston Center
Mon 10:59:19 PM 42.8733 -73.8197 139° Southeast 197 227 2,300 -197 Level Boston Center
Mon 10:59:46 PM 42.8506 -73.8136 169° South 190 219 2,100  Descending Boston Center
Mon 11:00:19 PM 42.8431 -73.7597 101° East 197 227 2,300 -984 Climbing Boston Center
Mon 11:00:47 PM 42.8047 -73.8097 224° Southwest 163 188 1,100 -1,227 Descending Boston Center
Mon 11:01:47 PM 42.7653 -73.8061 176° South 131 151 500 -600 Descending Boston Center

Login

Don't have an account? Register now (free) for customized features, flight alerts, and more!